Time;durP1;ratioP1;P1;durP2;ratioP2;P2;SDS_P1;SDS_P2;PMS_P1;PMS_P2;Temp;Humidity;BMP_temperature;BMP_pressure;BME280_temperature;BME280_humidity;BME280_pressure;Samples;Min_cycle;Max_cycle;Signal;HPM_P1;HPM_P2
2021/07/20 00:00:13;;;;;;;16.35;10.10;;;;;;;17.80;61.60;102031.06;5071146;28;20395;-57
2021/07/20 00:02:43;;;;;;;16.92;9.82;;;;;;;17.83;61.59;102035.97;5071461;28;20070;-58
2021/07/20 00:05:12;;;;;;;16.13;9.68;;;;;;;17.79;61.60;102034.88;5071468;28;20037;-57
2021/07/20 00:07:40;;;;;;;19.63;10.18;;;;;;;17.77;61.75;102030.75;5071192;28;20037;-56
2021/07/20 00:10:11;;;;;;;16.05;9.48;;;;;;;17.82;61.72;102036.25;5070795;28;20491;-57
2021/07/20 00:12:39;;;;;;;14.75;9.77;;;;;;;17.84;61.62;102040.38;5071163;28;20041;-57
2021/07/20 00:15:09;;;;;;;17.30;9.90;;;;;;;17.75;61.17;102036.56;5071416;28;20045;-56
2021/07/20 00:17:40;;;;;;;19.35;9.93;;;;;;;17.75;61.95;102039.34;5074803;28;20059;-57
2021/07/20 00:20:08;;;;;;;14.32;9.48;;;;;;;17.82;61.50;102039.88;5074678;28;20056;-54
2021/07/20 00:22:36;;;;;;;14.70;9.57;;;;;;;17.77;61.85;102034.31;5074842;28;20044;-57
2021/07/20 00:25:06;;;;;;;16.90;10.13;;;;;;;17.81;61.51;102038.19;5074361;28;20491;-56
2021/07/20 00:27:34;;;;;;;16.33;10.07;;;;;;;17.82;61.27;102030.75;5074784;28;20054;-55
2021/07/20 00:30:02;;;;;;;17.13;10.50;;;;;;;17.68;61.50;102030.56;5074984;28;20045;-57
2021/07/20 00:32:31;;;;;;;17.75;9.95;;;;;;;17.64;61.86;102037.75;5074969;28;20435;-56
2021/07/20 00:35:07;;;;;;;14.70;9.73;;;;;;;17.56;62.12;102038.38;5074553;28;20055;-56
2021/07/20 00:37:35;;;;;;;15.77;9.90;;;;;;;17.50;62.30;102042.25;5074634;28;20056;-57
2021/07/20 00:40:05;;;;;;;14.73;9.88;;;;;;;17.46;62.33;102041.97;5074489;28;20115;-55
2021/07/20 00:42:34;;;;;;;17.05;10.10;;;;;;;17.51;62.46;102041.13;5056563;28;20149;-56
2021/07/20 00:45:03;;;;;;;17.40;9.90;;;;;;;17.50;62.02;102045.81;5074273;28;20037;-56
2021/07/20 00:47:32;;;;;;;14.68;9.85;;;;;;;17.43;62.48;102046.13;5074243;28;20044;-55
2021/07/20 00:50:00;;;;;;;14.68;10.35;;;;;;;17.49;62.50;102051.63;5056277;28;20048;-55
2021/07/20 00:52:30;;;;;;;16.23;10.65;;;;;;;17.56;62.59;102041.94;5056159;28;20050;-55
2021/07/20 00:54:59;;;;;;;15.40;10.05;;;;;;;17.53;62.22;102038.91;5056324;28;20084;-52
2021/07/20 00:57:31;;;;;;;13.98;9.25;;;;;;;17.50;62.36;102034.78;5056438;28;20052;-55
2021/07/20 00:59:58;;;;;;;16.67;9.57;;;;;;;17.54;62.44;102029.56;5056387;28;20044;-56
2021/07/20 01:02:27;;;;;;;14.68;9.57;;;;;;;17.62;62.22;102026.19;5060220;28;20438;-56
2021/07/20 01:04:57;;;;;;;15.40;9.85;;;;;;;17.67;62.02;102028.91;5073985;28;20494;-56
2021/07/20 01:07:26;;;;;;;19.02;10.07;;;;;;;17.72;61.58;102030.78;5069807;28;20044;-56
2021/07/20 01:09:56;;;;;;;16.38;9.95;;;;;;;17.71;61.58;102031.91;5056257;28;20097;-55
2021/07/20 01:12:25;;;;;;;15.02;9.95;;;;;;;17.74;61.85;102034.09;5055708;28;20111;-56
2021/07/20 01:14:53;;;;;;;15.15;9.98;;;;;;;17.77;61.64;102034.31;5056094;28;20075;-55
2021/07/20 01:17:21;;;;;;;16.15;10.13;;;;;;;17.73;61.64;102041.53;5056083;28;20048;-57
2021/07/20 01:19:54;;;;;;;17.45;10.25;;;;;;;17.60;61.53;102029.22;5036431;28;20041;-56
2021/07/20 01:22:30;;;;;;;17.48;10.68;;;;;;;17.47;62.38;102021.59;5046686;28;20049;-56
2021/07/20 01:24:59;;;;;;;;;;;;;;;17.37;62.70;102019.72;5017201;28;20045;-56
2021/07/20 01:27:30;;;;;;;17.52;11.00;;;;;;;17.20;63.42;102022.03;5045143;28;19925;-57
2021/07/20 01:29:58;;;;;;;16.80;10.88;;;;;;;16.99;64.19;102021.31;5053083;28;20112;-54
2021/07/20 01:32:26;;;;;;;16.20;10.75;;;;;;;16.94;64.50;102021.31;5034921;28;20063;-56
2021/07/20 01:34:54;;;;;;;17.02;10.98;;;;;;;17.00;64.17;102021.03;5035248;28;20510;-56
2021/07/20 01:37:22;;;;;;;18.80;10.63;;;;;;;17.12;63.81;102017.91;5035685;28;20409;-58
2021/07/20 01:39:51;;;;;;;17.80;10.80;;;;;;;17.22;63.75;102017.03;5019561;28;20075;-55
2021/07/20 01:42:19;;;;;;;16.67;11.35;;;;;;;17.31;63.22;102020.03;5019589;28;20090;-56
2021/07/20 01:44:48;;;;;;;15.52;10.27;;;;;;;17.38;63.06;102026.88;5035487;28;20053;-57
2021/07/20 01:47:17;;;;;;;16.50;10.15;;;;;;;17.44;62.73;102023.00;5035971;28;20076;-56
2021/07/20 01:49:46;;;;;;;14.95;10.70;;;;;;;17.47;62.54;102027.09;5035435;28;20071;-56
2021/07/20 01:52:14;;;;;;;17.30;10.18;;;;;;;17.44;62.55;102025.75;5025972;28;20041;-56
2021/07/20 01:54:44;;;;;;;17.55;10.27;;;;;;;17.38;62.50;102026.06;5019059;28;20474;-57
2021/07/20 01:57:14;;;;;;;18.25;10.40;;;;;;;17.25;62.92;102024.75;5019174;28;20056;-57
2021/07/20 02:00:03;;;;;;;16.70;11.20;;;;;;;17.16;63.59;102029.22;5038210;28;20124;-56
2021/07/20 02:09:21;;;;;;;17.77;10.70;;;;;;;16.94;63.88;102022.16;4991373;28;20140;-57
2021/07/20 02:11:50;;;;;;;16.35;11.27;;;;;;;16.88;64.21;102026.00;4974906;28;20045;-56
2021/07/20 02:14:41;;;;;;;18.63;11.27;;;;;;;16.85;64.46;102028.50;4991260;28;20038;-57
2021/07/20 02:17:38;;;;;;;16.38;10.68;;;;;;;16.79;64.44;102027.72;4987608;28;20050;-57
2021/07/20 02:20:11;;;;;;;18.92;11.02;;;;;;;16.75;64.75;102032.09;4990311;28;20116;-58
2021/07/20 02:22:59;;;;;;;17.08;10.80;;;;;;;16.74;64.78;102022.19;4990960;28;20112;-57
2021/07/20 02:25:29;;;;;;;17.70;11.27;;;;;;;16.72;65.16;102029.91;4974848;28;20042;-57
2021/07/20 02:28:12;;;;;;;19.45;11.68;;;;;;;16.76;64.83;102025.47;4991087;28;20062;-58
2021/07/20 02:30:43;;;;;;;16.92;11.30;;;;;;;16.79;64.64;102023.03;4990975;28;20066;-54
2021/07/20 02:33:13;;;;;;;19.75;11.60;;;;;;;16.83;64.85;102026.03;4975002;28;20525;-53
2021/07/20 02:35:42;;;;;;;20.05;11.55;;;;;;;16.83;64.29;102020.53;4974226;28;20234;-58
2021/07/20 02:38:29;;;;;;;18.33;11.90;;;;;;;16.80;64.72;102026.59;4990736;28;20046;-55
2021/07/20 02:40:58;;;;;;;15.68;10.65;;;;;;;16.79;64.83;102028.53;5003312;28;20083;-56
2021/07/20 02:43:27;;;;;;;15.90;10.80;;;;;;;16.84;64.75;102022.19;5054499;28;20049;-56
2021/07/20 02:45:56;;;;;;;18.13;11.93;;;;;;;16.83;64.50;102021.34;5037678;28;20095;-52
2021/07/20 02:48:24;;;;;;;17.90;11.10;;;;;;;16.80;64.73;102021.09;5037699;28;20095;-53
2021/07/20 02:50:53;;;;;;;18.08;11.02;;;;;;;16.76;64.92;102025.47;5038112;28;20143;-55
2021/07/20 02:53:27;;;;;;;16.27;10.95;;;;;;;16.74;64.64;102027.69;5035105;28;20041;-53
2021/07/20 02:56:06;;;;;;;18.15;11.82;;;;;;;16.77;64.98;102021.63;5055293;28;20103;-56
2021/07/20 02:58:50;;;;;;;16.80;11.13;;;;;;;16.77;64.66;102021.63;5039867;28;20055;-55
2021/07/20 03:01:27;;;;;;;17.08;10.85;;;;;;;16.76;64.76;102025.47;5054283;28;20032;-57
2021/07/20 03:03:55;;;;;;;18.95;11.50;;;;;;;16.74;64.89;102022.19;5037373;28;20380;-56
2021/07/20 03:06:30;;;;;;;19.75;11.48;;;;;;;16.75;65.15;102023.84;5054142;28;20048;-56
2021/07/20 03:08:59;;;;;;;19.20;11.65;;;;;;;16.75;65.00;102029.34;5054327;28;20487;-56
2021/07/20 03:11:50;;;;;;;17.13;10.88;;;;;;;16.76;64.79;102031.81;5071244;28;20435;-57
2021/07/20 03:14:25;;;;;;;17.33;10.32;;;;;;;16.73;64.82;102037.06;5054213;28;20064;-56
2021/07/20 03:17:27;;;;;;;18.48;11.38;;;;;;;16.71;64.71;102036.50;5041106;28;20052;-57
2021/07/20 03:19:59;;;;;;;17.25;11.38;;;;;;;16.68;64.70;102045.31;5053604;28;20112;-56
2021/07/20 03:22:33;;;;;;;18.30;11.00;;;;;;;16.65;65.10;102040.38;5087199;28;20056;-56
2021/07/20 03:25:11;;;;;;;19.02;11.32;;;;;;;16.61;65.05;102040.94;5069566;28;20041;-57
2021/07/20 03:27:43;;;;;;;18.50;11.43;;;;;;;16.58;65.36;102046.19;5053948;28;20063;-56
2021/07/20 03:30:15;;;;;;;17.98;11.13;;;;;;;16.59;64.92;102037.63;5054290;28;20042;-56
2021/07/20 03:32:47;;;;;;;21.67;11.68;;;;;;;16.57;64.97;102039.84;5071533;28;20127;-52
2021/07/20 03:35:28;;;;;;;16.65;11.02;;;;;;;16.56;64.89;102043.69;5084937;28;20041;-57
2021/07/20 03:37:57;;;;;;;20.45;11.80;;;;;;;16.55;64.76;102042.06;5070447;28;20048;-57
2021/07/20 03:40:26;;;;;;;20.20;10.57;;;;;;;16.55;64.56;102041.25;5053842;28;20064;-56
2021/07/20 03:42:55;;;;;;;18.92;11.48;;;;;;;16.50;64.96;102039.31;5054007;28;20106;-56
2021/07/20 03:45:26;;;;;;;19.45;11.93;;;;;;;16.43;65.63;102033.28;5053752;28;20033;-57
2021/07/20 03:47:54;;;;;;;20.30;11.93;;;;;;;16.42;65.88;102037.13;5036841;28;20044;-56
2021/07/20 03:50:44;;;;;;;17.67;11.73;;;;;;;16.38;66.09;102036.84;5060962;28;20511;-53
2021/07/20 03:53:13;;;;;;;20.00;12.60;;;;;;;16.30;65.78;102034.66;5041265;28;20090;-55
2021/07/20 03:55:47;;;;;;;18.67;12.02;;;;;;;16.19;66.76;102033.84;5074412;28;20048;-56
2021/07/20 03:58:17;;;;;;;19.08;12.15;;;;;;;16.12;66.72;102027.81;5057732;28;20036;-57
2021/07/20 04:00:51;;;;;;;17.90;11.20;;;;;;;16.13;67.05;102028.63;5057291;28;20067;-57
2021/07/20 04:03:21;;;;;;;19.05;12.18;;;;;;;16.14;66.71;102031.13;5040920;28;20032;-57
2021/07/20 04:06:11;;;;;;;18.55;12.07;;;;;;;16.19;66.90;102031.09;4999538;28;20053;-57
2021/07/20 04:09:05;;;;;;;22.52;12.05;;;;;;;16.16;66.38;102037.16;4990885;28;20535;-57
2021/07/20 04:11:51;;;;;;;19.00;11.75;;;;;;;16.05;67.02;102043.75;5013087;28;20054;-56
2021/07/20 04:14:24;;;;;;;20.50;12.32;;;;;;;16.06;67.31;102036.31;4996649;28;20046;-56
2021/07/20 04:16:57;;;;;;;18.50;11.55;;;;;;;16.06;67.17;102039.91;5012748;28;20128;-55
2021/07/20 04:19:26;;;;;;;18.52;12.27;;;;;;;16.02;67.01;102033.31;5013038;28;20049;-55
2021/07/20 04:22:14;;;;;;;19.58;12.40;;;;;;;15.94;67.38;102034.66;5012807;28;20161;-56
2021/07/20 04:24:43;;;;;;;20.33;11.80;;;;;;;15.98;67.55;102033.03;4996456;28;20058;-55
2021/07/20 04:27:14;;;;;;;22.00;13.40;;;;;;;16.02;66.91;102033.31;4980188;28;20081;-56
2021/07/20 04:29:44;;;;;;;21.33;12.77;;;;;;;16.05;66.71;102038.25;5012712;28;20054;-54
2021/07/20 04:32:13;;;;;;;18.45;11.88;;;;;;;16.02;66.78;102038.81;4996111;28;20038;-54
2021/07/20 04:34:41;;;;;;;20.23;13.27;;;;;;;15.98;67.41;102035.78;5012635;28;20046;-56
2021/07/20 04:37:32;;;;;;;21.73;12.85;;;;;;;16.00;67.42;102043.75;5012522;28;20049;-56
2021/07/20 04:40:03;;;;;;;22.10;13.27;;;;;;;15.99;66.96;102044.84;5012555;28;20046;-56
2021/07/20 04:42:36;;;;;;;19.90;12.77;;;;;;;16.02;67.39;102037.97;5008177;28;20044;-56
2021/07/20 04:45:07;;;;;;;22.08;13.18;;;;;;;16.05;67.21;102040.19;5055980;28;20474;-56
2021/07/20 04:47:44;;;;;;;20.20;12.93;;;;;;;16.09;66.76;102042.13;5056320;28;20403;-56
2021/07/20 04:50:38;;;;;;;18.17;11.77;;;;;;;16.11;67.38;102052.81;5058240;28;20079;-52
2021/07/20 04:53:09;;;;;;;19.77;12.93;;;;;;;16.11;66.85;102053.63;5074475;28;20154;-54
2021/07/20 04:55:43;;;;;;;19.92;12.73;;;;;;;16.14;67.24;102047.59;5056288;28;20059;-57
2021/07/20 04:58:12;;;;;;;18.35;11.40;;;;;;;16.10;67.30;102048.44;5056302;28;20051;-60
2021/07/20 05:00:41;;;;;;;16.60;11.68;;;;;;;16.13;67.45;102045.13;5056008;28;20040;-60
2021/07/20 05:03:10;;;;;;;17.92;12.18;;;;;;;16.16;66.78;102053.66;5055105;28;20436;-59
2021/07/20 05:05:39;;;;;;;17.05;11.25;;;;;;;16.14;66.92;102047.59;5057122;28;20055;-60
2021/07/20 05:08:14;;;;;;;18.33;11.18;;;;;;;16.15;67.11;102053.94;5056252;28;20036;-60
2021/07/20 05:10:47;;;;;;;18.38;12.27;;;;;;;16.19;67.44;102044.84;5040280;28;20036;-60
2021/07/20 05:13:20;;;;;;;18.80;11.90;;;;;;;16.18;67.41;102054.19;5056753;28;20041;-60
2021/07/20 05:16:00;;;;;;;22.05;12.35;;;;;;;16.19;67.02;102060.53;5073700;28;20043;-60
2021/07/20 05:18:53;;;;;;;29.80;13.23;;;;;;;16.23;66.84;102063.53;5055004;28;20076;-59
2021/07/20 05:21:44;;;;;;;25.83;11.93;;;;;;;16.23;66.83;102066.28;4992396;28;20105;-59
2021/07/20 05:24:16;;;;;;;37.85;12.75;;;;;;;16.23;66.86;102058.03;4976166;28;20413;-61
2021/07/20 05:26:48;;;;;;;25.08;11.68;;;;;;;16.24;67.05;102060.53;4975365;28;20045;-58
2021/07/20 05:29:20;;;;;;;23.27;12.50;;;;;;;16.30;67.03;102055.84;4975950;28;20074;-60
2021/07/20 05:32:00;;;;;;;21.25;13.38;;;;;;;16.29;66.95;102059.69;4979270;28;20081;-58
2021/07/20 05:34:29;;;;;;;20.83;12.70;;;;;;;16.22;66.97;102064.66;4988965;28;20068;-59
2021/07/20 05:36:58;;;;;;;24.58;11.50;;;;;;;16.19;66.96;102055.03;4960887;28;20039;-55
2021/07/20 05:39:26;;;;;;;17.77;12.00;;;;;;;16.24;66.90;102065.22;5002087;28;20078;-58
2021/07/20 05:42:18;;;;;;;18.38;11.45;;;;;;;16.23;67.12;102060.78;4971974;28;20050;-56
2021/07/20 05:44:48;;;;;;;20.58;11.95;;;;;;;16.19;67.12;102058.59;4960040;28;20189;-55
2021/07/20 05:47:17;;;;;;;19.80;11.98;;;;;;;16.20;67.00;102062.16;4969545;28;20501;-56
2021/07/20 05:49:59;;;;;;;19.25;12.93;;;;;;;16.21;66.72;102063.00;4977440;28;20057;-57
2021/07/20 05:52:28;;;;;;;17.40;11.23;;;;;;;16.22;67.11;102070.97;4966475;28;20205;-56
2021/07/20 05:55:01;;;;;;;18.58;12.52;;;;;;;16.28;66.63;102067.09;4997052;28;20051;-54
2021/07/20 05:57:31;;;;;;;18.70;11.73;;;;;;;16.27;66.71;102067.41;4968681;28;20046;-56
2021/07/20 06:00:11;;;;;;;22.30;12.57;;;;;;;16.29;66.14;102070.69;5062958;28;20068;-56
2021/07/20 06:02:57;;;;;;;18.65;12.00;;;;;;;16.28;66.29;102069.03;5039721;28;20035;-54
2021/07/20 06:05:27;;;;;;;19.42;11.82;;;;;;;16.23;66.40;102071.78;5064559;28;20105;-57
2021/07/20 06:07:56;;;;;;;24.17;12.40;;;;;;;16.26;66.96;102073.97;5084428;28;20048;-57
2021/07/20 06:10:24;;;;;;;21.67;12.30;;;;;;;16.22;66.21;102070.97;5066431;28;20518;-56
2021/07/20 06:12:53;;;;;;;18.10;9.88;;;;;;;16.35;66.35;102072.34;5067680;28;20051;-56
2021/07/20 06:15:21;;;;;;;20.90;11.75;;;;;;;16.40;65.72;102066.81;5085992;28;20128;-57
2021/07/20 06:17:48;;;;;;;17.55;10.75;;;;;;;16.41;66.15;102071.25;5065978;28;20082;-57
2021/07/20 06:20:17;;;;;;;21.25;12.48;;;;;;;16.46;66.32;102075.91;5075641;28;20060;-57
2021/07/20 06:22:50;;;;;;;19.70;11.63;;;;;;;16.55;66.19;102086.09;5046883;28;20050;-57
2021/07/20 06:25:24;;;;;;;19.58;12.30;;;;;;;16.60;65.37;102083.31;5049259;28;20032;-54
2021/07/20 06:27:53;;;;;;;19.65;12.68;;;;;;;16.58;64.61;102082.75;5069693;28;20040;-53
2021/07/20 06:30:21;;;;;;;24.80;12.07;;;;;;;16.55;64.84;102085.25;5041812;28;20028;-53
2021/07/20 06:32:50;;;;;;;22.42;11.48;;;;;;;16.57;64.65;102083.88;5088618;28;20044;-60
2021/07/20 06:35:18;;;;;;;21.33;13.00;;;;;;;16.60;65.08;102091.56;5083716;28;20041;-62
2021/07/20 06:37:47;;;;;;;25.67;13.05;;;;;;;16.55;64.80;102082.50;5082136;28;20118;-61
2021/07/20 06:40:16;;;;;;;21.67;13.00;;;;;;;16.50;64.86;102088.84;5054439;28;20043;-61
2021/07/20 06:42:45;;;;;;;23.67;12.43;;;;;;;16.40;65.31;102092.44;5087227;28;20055;-61
2021/07/20 06:45:14;;;;;;;19.65;12.25;;;;;;;16.44;64.97;102083.63;5087803;28;20136;-62
2021/07/20 06:47:45;;;;;;;19.95;11.68;;;;;;;16.49;64.75;102091.84;5054175;28;20040;-62
2021/07/20 06:50:17;;;;;;;20.85;10.65;;;;;;;16.52;64.38;102089.38;5087714;28;20044;-62
2021/07/20 06:52:48;;;;;;;19.65;12.98;;;;;;;16.64;64.33;102082.75;5087336;28;20102;-61
2021/07/20 06:55:17;;;;;;;21.83;12.55;;;;;;;16.64;63.99;102094.56;5087392;28;20445;-61
2021/07/20 06:57:46;;;;;;;21.15;12.32;;;;;;;16.70;63.90;102084.41;5087326;28;20048;-64
2021/07/20 07:00:17;;;;;;;22.92;11.13;;;;;;;16.72;63.18;102091.28;5072374;28;20045;-60
2021/07/20 07:02:51;;;;;;;19.25;11.55;;;;;;;16.71;63.54;102095.13;5087568;28;20051;-62
2021/07/20 07:05:20;;;;;;;21.98;11.98;;;;;;;16.77;62.52;102095.94;5087878;28;20036;-64
2021/07/20 07:07:49;;;;;;;25.08;12.15;;;;;;;16.78;62.39;102086.56;5087589;28;20036;-63
2021/07/20 07:10:18;;;;;;;25.05;15.00;;;;;;;16.80;63.16;102092.66;5071587;28;20410;-61
2021/07/20 07:12:48;;;;;;;20.80;11.38;;;;;;;16.79;63.11;102091.03;5087193;28;20135;-64
2021/07/20 07:15:18;;;;;;;20.05;10.80;;;;;;;16.80;63.03;102092.66;5087207;28;20044;-62
2021/07/20 07:17:48;;;;;;;20.05;11.45;;;;;;;16.85;62.95;102094.59;5087708;28;20086;-61
2021/07/20 07:20:18;;;;;;;21.00;11.40;;;;;;;16.91;62.44;102099.81;5071829;28;20048;-62
2021/07/20 07:22:46;;;;;;;23.67;11.38;;;;;;;16.97;62.58;102104.19;5071931;28;20395;-57
2021/07/20 07:25:17;;;;;;;18.98;11.07;;;;;;;16.98;62.09;102094.81;5071545;28;20033;-56
2021/07/20 07:27:45;;;;;;;16.45;10.45;;;;;;;17.00;61.91;102098.13;5075926;28;20479;-52
2021/07/20 07:30:14;;;;;;;21.55;11.85;;;;;;;17.06;61.69;102096.16;5091190;28;20045;-58
2021/07/20 07:32:41;;;;;;;19.15;12.55;;;;;;;17.14;62.60;102092.81;5091300;28;20048;-57
2021/07/20 07:35:10;;;;;;;19.40;11.02;;;;;;;17.22;61.88;102088.66;5075697;28;20055;-57
2021/07/20 07:37:39;;;;;;;16.60;9.55;;;;;;;17.22;62.56;102097.78;5091466;28;20065;-57
2021/07/20 07:40:08;;;;;;;20.35;12.95;;;;;;;17.23;61.43;102101.34;5057524;28;20044;-57
2021/07/20 07:42:38;;;;;;;18.25;12.35;;;;;;;17.25;61.76;102110.16;5091226;28;20041;-56
2021/07/20 07:45:07;;;;;;;17.75;11.63;;;;;;;17.27;60.97;102112.59;5075792;28;20048;-58
2021/07/20 07:47:38;;;;;;;21.38;12.15;;;;;;;17.25;60.71;102115.66;5075747;28;20048;-54
2021/07/20 07:50:07;;;;;;;16.83;10.82;;;;;;;17.24;60.68;102109.34;5075566;28;20051;-57
2021/07/20 07:52:36;;;;;;;18.50;11.98;;;;;;;17.26;60.89;102111.78;5075098;28;20045;-56
2021/07/20 07:55:05;;;;;;;17.15;9.68;;;;;;;17.28;60.82;102103.25;5075358;28;20040;-58
2021/07/20 07:57:33;;;;;;;22.42;9.98;;;;;;;17.37;61.38;102107.06;5075414;28;20044;-54
2021/07/20 08:00:05;;;;;;;27.38;11.85;;;;;;;17.31;60.48;102109.00;5057742;28;20055;-55
2021/07/20 08:02:40;;;;;;;22.38;12.10;;;;;;;17.32;59.88;102102.41;5075344;28;20098;-57
2021/07/20 08:05:09;;;;;;;20.92;12.98;;;;;;;17.28;59.94;102108.75;5073728;28;20449;-57
2021/07/20 08:07:38;;;;;;;15.25;9.88;;;;;;;17.31;60.80;102103.50;5075017;28;20045;-54
2021/07/20 08:10:07;;;;;;;19.45;11.07;;;;;;;17.35;59.62;102106.53;5074923;28;20040;-56
2021/07/20 08:12:35;;;;;;;18.33;11.73;;;;;;;17.36;59.94;102106.22;5074814;28;20093;-57
2021/07/20 08:15:03;;;;;;;19.15;12.50;;;;;;;17.40;60.57;102104.56;5074870;28;20044;-57
2021/07/20 08:17:33;;;;;;;18.48;11.02;;;;;;;17.47;60.48;102109.78;5074942;28;20487;-54
2021/07/20 08:20:02;;;;;;;18.60;12.18;;;;;;;17.54;59.85;102106.72;5073383;28;20045;-58
2021/07/20 08:22:30;;;;;;;19.13;12.65;;;;;;;17.55;59.46;102108.34;5075036;28;20106;-57
2021/07/20 08:25:04;;;;;;;24.90;11.98;;;;;;;17.58;59.98;102103.13;5074601;28;20557;-58
2021/07/20 08:27:48;;;;;;;21.90;12.13;;;;;;;17.61;59.84;102107.22;5074558;28;20055;-55
2021/07/20 08:30:18;;;;;;;20.20;11.45;;;;;;;17.64;58.51;102103.91;5090244;28;20525;-54
2021/07/20 08:32:59;;;;;;;14.32;10.30;;;;;;;17.69;58.72;102103.88;5090265;28;20047;-58
2021/07/20 08:35:31;;;;;;;19.00;10.35;;;;;;;17.74;58.50;102101.06;5090268;28;20036;-55
2021/07/20 08:38:04;;;;;;;16.95;9.98;;;;;;;17.79;58.12;102108.50;5088248;28;20040;-57
2021/07/20 08:40:50;;;;;;;17.75;10.18;;;;;;;17.83;58.16;102110.41;5074582;28;20107;-57
2021/07/20 08:43:44;;;;;;;19.35;11.32;;;;;;;17.88;58.01;102107.63;5075187;28;20048;-56
2021/07/20 08:46:33;;;;;;;16.05;10.68;;;;;;;17.87;58.43;102110.66;5090207;28;20070;-58
2021/07/20 08:49:07;;;;;;;17.45;11.27;;;;;;;17.87;57.99;102111.50;5091025;28;20086;-57
2021/07/20 08:51:59;;;;;;;17.23;10.43;;;;;;;17.90;58.59;102104.59;5074023;28;20052;-58
2021/07/20 08:54:28;;;;;;;16.02;10.80;;;;;;;17.97;58.76;102101.53;5074484;28;20029;-56
2021/07/20 08:57:01;;;;;;;19.45;10.90;;;;;;;18.03;57.81;102103.13;5056316;28;20060;-59
2021/07/20 08:59:39;;;;;;;19.95;10.52;;;;;;;18.07;57.50;102104.19;5089817;28;20048;-56
2021/07/20 09:02:26;;;;;;;18.83;11.05;;;;;;;18.12;56.96;102106.09;5073010;28;20047;-56
2021/07/20 09:05:32;;;;;;;14.57;9.95;;;;;;;18.14;56.79;102107.47;5073971;28;20124;-56
2021/07/20 09:08:00;;;;;;;;;;;;;;;18.16;56.93;102109.91;5074353;28;20048;-56
2021/07/20 09:10:45;;;;;;;16.80;9.25;;;;;;;18.09;56.34;102110.25;5056541;28;19924;-55
2021/07/20 09:13:18;;;;;;;15.75;10.77;;;;;;;18.06;57.22;102102.53;5073522;28;20040;-55
2021/07/20 09:15:53;;;;;;;16.10;11.23;;;;;;;18.05;57.11;102106.41;5073866;28;20158;-55
2021/07/20 09:18:20;;;;;;;15.07;10.05;;;;;;;18.14;56.71;102104.69;5073693;28;20036;-55
2021/07/20 09:20:52;;;;;;;19.77;11.68;;;;;;;18.17;57.70;102109.63;5073585;28;20415;-56
2021/07/20 09:23:43;;;;;;;17.95;10.80;;;;;;;18.19;56.78;102107.41;5089220;28;20048;-53
2021/07/20 09:26:21;;;;;;;21.45;11.43;;;;;;;18.28;56.94;102111.22;5089194;28;20054;-56
2021/07/20 09:28:56;;;;;;;18.30;11.00;;;;;;;18.37;56.44;102118.84;5073283;28;20041;-56
2021/07/20 09:31:38;;;;;;;19.42;10.50;;;;;;;18.41;56.43;102119.94;5073890;28;20060;-56
2021/07/20 09:34:22;;;;;;;16.33;9.80;;;;;;;18.44;55.05;102106.34;5073334;28;20376;-57
2021/07/20 09:37:09;;;;;;;16.85;10.02;;;;;;;18.50;55.59;102113.50;5073036;28;20534;-54
2021/07/20 09:40:17;;;;;;;13.50;9.60;;;;;;;18.58;55.24;102102.94;5088860;28;20048;-57
2021/07/20 09:42:54;;;;;;;17.90;10.55;;;;;;;18.62;55.00;102110.34;5055800;28;20040;-57
2021/07/20 09:45:27;;;;;;;17.58;11.20;;;;;;;18.62;54.53;102110.34;5073146;28;20533;-56
2021/07/20 09:48:02;;;;;;;19.55;12.02;;;;;;;18.66;55.09;102108.63;5088284;28;20429;-57
2021/07/20 09:50:40;;;;;;;19.88;11.23;;;;;;;18.68;54.74;102114.69;5087679;28;20072;-56
2021/07/20 09:53:33;;;;;;;18.15;10.98;;;;;;;18.69;54.80;102110.84;5089078;28;20119;-55
2021/07/20 09:56:38;;;;;;;20.75;10.77;;;;;;;18.68;55.10;102105.59;5088359;28;20124;-56
2021/07/20 09:59:27;;;;;;;15.05;9.50;;;;;;;18.77;54.17;102111.34;5055283;28;20058;-56
2021/07/20 10:01:57;;;;;;;17.92;11.07;;;;;;;18.78;53.69;102099.16;5061705;28;20558;-53
2021/07/20 10:04:45;;;;;;;19.02;11.73;;;;;;;18.78;54.17;102101.94;5070546;28;20045;-55
2021/07/20 10:08:10;;;;;;;16.48;10.32;;;;;;;18.80;54.57;102095.00;5073009;28;20090;-57
2021/07/20 10:10:47;;;;;;;20.65;10.55;;;;;;;18.87;54.86;102100.19;5030678;28;20137;-57
2021/07/20 10:13:30;;;;;;;19.52;10.38;;;;;;;18.91;54.19;102102.06;5014850;28;20047;-55
2021/07/20 10:16:10;;;;;;;35.78;11.25;;;;;;;18.96;54.94;102109.47;5014404;28;20057;-57
2021/07/20 10:19:05;;;;;;;21.98;11.32;;;;;;;19.03;53.59;102107.19;5013927;28;20050;-57
2021/07/20 10:21:36;;;;;;;18.67;9.90;;;;;;;18.97;53.65;102089.00;5030009;28;20056;-55
2021/07/20 10:24:20;;;;;;;28.42;11.20;;;;;;;19.01;53.79;102095.59;5029850;28;20559;-53
2021/07/20 10:27:15;;;;;;;42.17;13.70;;;;;;;19.10;54.05;102095.78;5014083;28;20068;-56
2021/07/20 10:29:57;;;;;;;19.95;10.52;;;;;;;19.14;52.26;102099.59;4936540;29;20055;-55
2021/07/20 10:32:52;;;;;;;24.23;10.10;;;;;;;19.13;53.12;102098.75;4952101;29;20047;-54
2021/07/20 10:35:24;;;;;;;16.67;10.07;;;;;;;19.08;52.58;102096.06;4951725;29;20058;-58
2021/07/20 10:37:55;;;;;;;15.13;9.23;;;;;;;19.09;52.55;102097.69;4936559;29;20046;-57
2021/07/20 10:40:24;;;;;;;16.33;9.38;;;;;;;19.11;52.14;102091.88;4937371;28;20082;-55
2021/07/20 10:43:13;;;;;;;15.55;9.45;;;;;;;19.12;53.05;102091.59;4955394;28;20039;-52
2021/07/20 10:45:42;;;;;;;18.30;9.75;;;;;;;19.23;52.75;102091.47;4971354;28;20155;-58
2021/07/20 10:48:17;;;;;;;16.55;9.88;;;;;;;19.24;52.41;102088.44;4954926;28;20071;-55
2021/07/20 10:50:55;;;;;;;15.97;9.13;;;;;;;19.27;52.47;102089.78;4955267;28;20040;-54
2021/07/20 10:53:28;;;;;;;13.70;8.50;;;;;;;19.30;53.37;102086.41;4971297;28;20681;-55
2021/07/20 10:56:13;;;;;;;15.43;10.45;;;;;;;19.37;52.70;102086.88;4971095;28;20058;-54
2021/07/20 10:58:44;;;;;;;;;;;;;;;19.46;53.34;102076.81;4971644;28;20046;-57
2021/07/20 11:01:35;;;;;;;16.00;10.32;;;;;;;19.46;51.82;102087.84;4970340;28;19944;-57
2021/07/20 11:04:25;;;;;;;16.13;10.07;;;;;;;19.46;52.55;102075.94;4955137;28;20055;-57
2021/07/20 11:06:53;;;;;;;16.88;10.88;;;;;;;19.46;52.58;102082.31;5024673;28;20163;-58
2021/07/20 11:09:22;;;;;;;30.83;11.20;;;;;;;19.52;52.90;102075.59;5048705;28;20064;-57
2021/07/20 11:11:55;;;;;;;18.83;10.07;;;;;;;19.54;52.26;102078.88;5059711;28;20131;-57
2021/07/20 11:14:29;;;;;;;18.55;9.95;;;;;;;19.57;52.36;102072.75;5053921;28;20048;-58
2021/07/20 11:16:58;;;;;;;14.75;9.88;;;;;;;19.60;51.59;102071.31;5070449;28;20040;-58
2021/07/20 11:19:28;;;;;;;17.90;9.98;;;;;;;19.63;52.08;102068.00;5053149;28;20075;-57
2021/07/20 11:21:57;;;;;;;14.95;9.30;;;;;;;19.64;51.78;102064.09;5044420;28;20063;-58
2021/07/20 11:24:25;;;;;;;18.15;10.45;;;;;;;19.66;51.55;102067.38;5053011;28;20060;-57
2021/07/20 11:26:56;;;;;;;16.58;10.02;;;;;;;19.64;51.51;102071.56;5071383;28;20048;-57
2021/07/20 11:29:24;;;;;;;15.65;9.70;;;;;;;19.66;51.61;102072.91;5037692;28;20068;-52
2021/07/20 11:31:54;;;;;;;16.65;10.27;;;;;;;19.69;52.17;102077.06;5053535;28;20415;-57
2021/07/20 11:34:25;;;;;;;15.65;10.23;;;;;;;19.76;51.23;102074.72;5053919;28;20060;-59
2021/07/20 11:37:02;;;;;;;19.38;10.98;;;;;;;19.77;51.70;102077.22;5053534;28;20503;-58
2021/07/20 11:39:34;;;;;;;16.85;11.23;;;;;;;19.80;51.67;102075.78;5053599;28;20048;-52
2021/07/20 11:42:21;;;;;;;37.88;11.30;;;;;;;19.83;51.08;102083.47;5071730;28;20054;-57
2021/07/20 11:44:58;;;;;;;19.85;11.93;;;;;;;19.74;50.80;102068.66;5086392;28;20056;-54
2021/07/20 11:47:48;;;;;;;21.55;11.60;;;;;;;19.77;51.34;102071.69;5053650;28;20043;-55
2021/07/20 11:50:24;;;;;;;17.75;11.90;;;;;;;19.77;50.25;102063.38;5071576;28;20054;-53